ADDS METAR Data INFO
IDs: Format: Raw Decoded Include TAF

Data at: 1117 UTC 21 Feb 2018

PFKT 201456Z AUTO 20033G39KT 7SM OVC026 M01/M03 A2993 RMK AO2 PK WND 20042/1432 SLP137 60000 T10111033 51020 FZRANO
PFKT 201356Z AUTO 20034G38KT 7SM BKN026 OVC031 M02/M03 A2991 RMK AO2 PK WND 19038/1354 SLP129 T10171033 FZRANO
PFKT 201333Z AUTO 19031G37KT 7SM BKN026 OVC033 M02/M03 A2991 RMK AO2 PK WND 19037/1329 FZRANO
PFKT 201256Z AUTO 19033G39KT 6SM BR OVC030 M01/M03 A2990 RMK AO2 PK WND 19041/1227 SNE55 SLP125 P0000 T10111033 FZRANO
PFKT 201237Z AUTO 19034G40KT 3SM -SN BR OVC030 M01/M03 A2989 RMK AO2 PK WND 19041/1227 P0000 FZRANO
PFKT 201156Z AUTO 19033G40KT 1 1/2SM -SN BR FEW019 BKN055 OVC070 M01/M02 A2987 RMK AO2 PK WND 19040/1155 SLP117 P0000 60000 T10111022 10006 21011 51017 FZRANO
PFKT 201140Z AUTO 19032G37KT 1 1/2SM -SN BR SCT017 BKN023 OVC060 M01/M02 A2987 RMK AO2 PK WND 19038/1120 VIS 1V2 P0000 FZRANO
PFKT 201128Z AUTO 19031G38KT 1SM -SN BR BKN017 OVC023 M01/M02 A2987 RMK AO2 PK WND 19038/1120 P0000 FZRANO
PFKT 201119Z AUTO 19032G37KT 1 1/4SM -SN BR OVC019 M01/M02 A2987 RMK AO2 PK WND 19038/1106 P0000 FZRANO
PFKT 201109Z AUTO 19030G38KT 1SM -SN BR BKN017 OVC022 M01/M02 A2987 RMK AO2 PK WND 19038/1106 P0000 FZRANO
PFKT 201056Z AUTO 19033G37KT 1 3/4SM -SN BR BKN020 OVC027 M01/M02 A2987 RMK AO2 PK WND 19039/1040 SLP114 P0000 T10061022 FZRANO
PFKT 201021Z AUTO 18031G37KT 2 1/2SM -SN BR FEW020 BKN027 OVC034 M01/M02 A2986 RMK AO2 PK WND 18038/1011 P0000 FZRANO
PFKT 200956Z AUTO 18031KT 2 1/2SM -SN BR FEW020 BKN034 BKN050 M01/M02 A2985 RMK AO2 PK WND 18042/0931 SLP108 P0000 T10111022 FZRANO
PFKT 200935Z AUTO 19032G42KT 2SM -SN BR FEW050 M01/M02 A2984 RMK AO2 PK WND 18042/0931 P0000 FZRANO
PFKT 200856Z AUTO 19035G40KT 1 3/4SM -SN BR CLR M01/M02 A2982 RMK AO2 PK WND 19040/0847 SNB37 SLP100 P0000 60000 T10061022 400171006 51010 FZRANO
PFKT 200843Z AUTO 19034G40KT 2SM -SN BR FEW037 M01/M02 A2982 RMK AO2 PK WND 19040/0842 SNB37 P0000 FZRANO
PFKT 200756Z AUTO 19030KT 5SM BR CLR 00/M02 A2981 RMK AO2 PK WND 19036/0749 SLP096 T00001017 FZRANO
PFKT 200705Z AUTO 19032G35KT 6SM BR FEW023 01/M02 A2981 RMK AO2 PK WND 18035/0705 FZRANO
PFKT 200656Z AUTO 18026G31KT 6SM BR BKN023 01/M02 A2981 RMK AO2 PK WND 19034/0634 SLP096 T00061017 FZRANO
PFKT 200646Z AUTO 19024G33KT 6SM BR SCT027 01/M01 A2982 RMK AO2 PK WND 19034/0634 FZRANO
PFKT 200556Z AUTO 19029KT 6SM BR SCT009 BKN027 01/M01 A2979 RMK AO2 PK WND 19036/0538 SLP090 60000 T00061006 10017 20006 53023 FZRANO
PFKT 200456Z AUTO 19029KT 6SM BR OVC009 01/M01 A2976 RMK AO2 PK WND 18039/0404 CIG 007V012 SLP078 T00111006 FZRANO
PFKT 200425Z AUTO 19034G37KT 5SM BR OVC007 01/00 A2974 RMK AO2 PK WND 18039/0404 FZRANO
PFKT 200356Z AUTO 19033G41KT 6SM BR OVC005 01/00 A2973 RMK AO2 PK WND 18043/0307 RAE00 CIG 004V008 SLP068 P0000 T00060000 FZRANO
PFKT 200348Z AUTO 19030G36KT 5SM BR OVC005 01/00 A2973 RMK AO2 PK WND 18043/0307 RAE00 P0000 FZRANO
PFKT 200311Z AUTO 18036G43KT 7SM BKN007 BKN012 OVC016 01/00 A2973 RMK AO2 PK WND 18043/0307 RAE00 P0000 FZRANO
PFKT 200256Z AUTO 18035G42KT 5SM -RA BR BKN011 OVC016 01/00 A2973 RMK AO2 PK WND 18042/0252 UPB06E13B37E43RAB13E26B43 SLP066 P0000 60000 T00110000 55008 FZRANO
PFKT 200250Z AUTO 18031G40KT 3SM -RA BR BKN011 OVC016 01/00 A2972 RMK AO2 PK WND 18042/0227 UPB06E13B37E43RAB13E26B43 P0000 FZRANO
PFKT 200246Z AUTO 18034G41KT 2 1/2SM -RA BR SCT011 OVC016 01/00 A2972 RMK AO2 PK WND 18042/0227 UPB06E13B37E43RAB13E26B43 P0000 FZRANO
PFKT 200238Z AUTO 18036G40KT 3SM UP BR BKN011 OVC018 01/00 A2972 RMK AO2 PK WND 18042/0227 UPB06E13B37RAB13E26 P0000 FZRANO
PFKT 200156Z AUTO 17031G37KT 10SM OVC016 02/00 A2972 RMK AO2 PK WND 17037/0147 RAE23 SLP066 P0000 T00170000 FZRANO
PFKT 200056Z AUTO 14024G31KT 10SM -RA OVC012 01/M01 A2974 RMK AO2 PK WND 14034/0006 UPE08RAB08 SLP070 P0000 T00111006 FZRANO
PFKT 200008Z AUTO 13027G34KT 8SM -RA OVC014 01/M01 A2974 RMK AO2 PK WND 14034/0006 UPE08RAB08 P0000 FZRANO
PFKT 192356Z AUTO 14028G33KT 10SM UP BKN016 OVC025 01/M01 A2975 RMK AO2 PK WND 14036/2336 RAE13B38E51UPB51SNB13E38 SLP074 P0000 60000 T00111006 10017 20006 56015 FZRANO